Airport Information

KALW - Walla Walla Regional Airport

KALW 160753Z AUTO 34003KT 10SM OVC006 M01/M04 A2995 RMK AO2 SLP156 T10111039 410111017


  • General Information

  • Coordinates: N 46°5'41"/ W 118°17'16"
  • Location: N/A
  • Surveyed Elevation: 1191 MSL

Operations

Flow Name Active Runways Conditions

Green background denotes normal operations.


Common Frequencies

Callsign Frequency Position Name

More at the Document Center


Charts